Hudson, Ohio
Current Conditions -  °F | °C
As of 8:40 PM on Sunday 23 Nov 2014 (Local Time) from KPOV Reporting Station
Light Rain Light Rain  
Wind Chill: 54°   Ceiling: 10000
Heat Index: 54°   Visibility: 10mi
Dew Point: 43°   Wind: 12mph
Humidity: 67%   Direction: 130°SE
Pressure: 29.61"   Gusts: 20mph
Location:  41.24°N, 81.44°W
Report Text: KPOV 240140Z AUTO 13010G17KT 10SM -RA SCT080 OVC100 12/06 A2961 RMK AO2 P0001 T01210062
Loading
Personal Weather Stations






























Interactive Weather Map New forecast layout! Learn more

10-Day Weather Forecast

Advertisements
Track Severe Weather on mobile